Time;durP1;ratioP1;P1;durP2;ratioP2;P2;SDS_P1;SDS_P2;PMS_P1;PMS_P2;Temp;Humidity;BMP_temperature;BMP_pressure;BME280_temperature;BME280_humidity;BME280_pressure;Samples;Min_cycle;Max_cycle;Signal;HPM_P1;HPM_P2
2023/03/04 00:01:37;;;;;;;15.43;3.55;;;;;;;-146.27;81.21;48367.72;5078391;28;20024;-68
2023/03/04 00:04:03;;;;;;;17.85;3.40;;;;;;;-146.27;81.98;48371.69;5089914;28;20030;-68
2023/03/04 00:06:28;;;;;;;9.98;2.97;;;;;;;-146.27;82.42;48383.66;5091445;28;20376;-68
2023/03/04 00:08:53;;;;;;;14.38;3.30;;;;;;;-146.27;81.98;48347.81;5088852;28;20483;-69
2023/03/04 00:11:19;;;;;;;14.27;3.67;;;;;;;-146.27;81.63;48373.69;5090786;28;20071;-68
2023/03/04 00:13:44;;;;;;;16.20;3.85;;;;;;;-146.27;81.61;48375.69;5090066;28;20039;-68
2023/03/04 00:16:09;;;;;;;18.23;2.97;;;;;;;-146.27;81.13;48387.63;5078337;28;20340;-67
2023/03/04 00:18:35;;;;;;;10.40;2.00;;;;;;;-146.27;80.25;48375.69;5084453;28;20404;-68
2023/03/04 00:21:00;;;;;;;13.48;2.45;;;;;;;-146.27;80.37;48351.78;5089759;28;20426;-67
2023/03/04 00:23:26;;;;;;;12.05;2.40;;;;;;;-146.27;80.49;48395.59;5089922;28;20039;-67
2023/03/04 00:25:51;;;;;;;12.02;2.05;;;;;;;-146.27;80.86;48387.63;5086283;28;20460;-68
2023/03/04 00:28:16;;;;;;;10.27;1.67;;;;;;;-146.27;81.46;48381.66;5089524;28;20053;-68
2023/03/04 00:30:42;;;;;;;28.30;2.13;;;;;;;-146.27;81.79;48347.81;5086040;28;20028;-68
2023/03/04 00:33:07;;;;;;;15.02;1.80;;;;;;;-146.27;81.90;48385.66;5079308;28;20398;-69
2023/03/04 00:35:32;;;;;;;15.55;2.08;;;;;;;-146.27;82.08;48365.72;5089854;28;20094;-68
2023/03/04 00:37:58;;;;;;;12.63;2.13;;;;;;;-146.27;81.80;48391.63;5087322;28;20070;-67
2023/03/04 00:40:23;;;;;;;10.68;2.60;;;;;;;-146.27;81.51;48367.72;5090592;28;20294;-68
2023/03/04 00:42:48;;;;;;;11.38;1.40;;;;;;;-146.27;81.88;48387.63;5089954;28;20403;-68
2023/03/04 00:45:14;;;;;;;12.60;1.67;;;;;;;-146.27;81.24;48367.72;5089433;28;20047;-68
2023/03/04 00:47:39;;;;;;;24.48;2.55;;;;;;;-146.27;81.16;48355.78;5088448;28;20024;-68
2023/03/04 00:50:05;;;;;;;11.10;1.77;;;;;;;-146.27;81.21;48335.84;5090702;28;20039;-69
2023/03/04 00:52:31;;;;;;;12.57;2.55;;;;;;;-146.27;81.54;48367.72;5088508;28;20119;-68
2023/03/04 00:54:56;;;;;;;8.82;1.30;;;;;;;-146.27;80.96;48359.75;5090892;28;20525;-68
2023/03/04 00:57:22;;;;;;;10.65;1.63;;;;;;;-146.27;80.35;48367.72;5089917;28;20027;-68
2023/03/04 00:59:47;;;;;;;13.32;1.33;;;;;;;-146.27;80.10;48371.69;5090974;28;20020;-68
2023/03/04 01:02:12;;;;;;;15.77;2.17;;;;;;;-146.27;79.91;48383.66;5089165;28;20052;-69
2023/03/04 01:04:38;;;;;;;9.20;1.50;;;;;;;-146.27;80.50;48351.78;5090810;28;20020;-67
2023/03/04 01:07:04;;;;;;;16.92;1.63;;;;;;;-146.27;80.24;48339.84;5082261;28;20093;-69
2023/03/04 01:09:29;;;;;;;13.43;1.60;;;;;;;-146.27;80.94;48365.72;5088625;28;20525;-69
2023/03/04 01:11:55;;;;;;;9.68;1.55;;;;;;;-146.27;80.75;48367.72;5091569;28;20075;-67
2023/03/04 01:14:20;;;;;;;7.22;1.45;;;;;;;-146.27;80.54;48359.75;5081118;28;20387;-68
2023/03/04 01:16:46;;;;;;;14.38;1.50;;;;;;;-146.27;81.05;48325.91;5088809;28;20476;-68
2023/03/04 01:19:12;;;;;;;12.50;1.17;;;;;;;-146.27;80.70;48367.72;5088810;28;20070;-68
2023/03/04 01:21:37;;;;;;;21.40;2.25;;;;;;;-146.27;80.77;48375.69;5082083;28;20024;-67
2023/03/04 01:24:03;;;;;;;18.60;2.20;;;;;;;-146.27;81.91;48363.75;5090682;28;20042;-68
2023/03/04 01:26:28;;;;;;;9.85;1.45;;;;;;;-146.27;80.15;48369.72;5080800;28;20093;-67
2023/03/04 01:28:54;;;;;;;8.18;1.55;;;;;;;-146.27;80.29;48371.69;5094376;28;20028;-67
2023/03/04 01:31:19;;;;;;;10.10;1.98;;;;;;;-146.27;80.14;48381.66;5085183;28;20016;-69
2023/03/04 01:33:45;;;;;;;13.30;2.35;;;;;;;-146.27;80.21;48367.72;5087758;28;20496;-68
2023/03/04 01:36:10;;;;;;;16.67;2.75;;;;;;;-146.27;80.17;48379.66;5090173;28;20654;-69
2023/03/04 01:38:36;;;;;;;14.95;1.80;;;;;;;-146.27;80.18;48375.69;5090118;28;20031;-67
2023/03/04 01:41:01;;;;;;;12.20;1.60;;;;;;;-146.27;80.97;48373.69;5094761;28;20028;-68
2023/03/04 01:43:29;;;;;;;8.48;1.45;;;;;;;-146.27;81.16;48367.72;5084518;28;20028;-68
2023/03/04 01:45:56;;;;;;;13.43;1.40;;;;;;;-146.27;80.76;48309.97;5092121;28;20045;-69
2023/03/04 01:48:29;;;;;;;10.63;2.05;;;;;;;-146.27;81.10;48351.78;5093566;28;20027;-68
2023/03/04 01:50:55;;;;;;;8.35;1.20;;;;;;;-146.27;81.35;48359.75;5080328;28;20051;-69
2023/03/04 01:53:23;;;;;;;17.95;2.88;;;;;;;-146.27;81.43;48381.66;5094426;28;20054;-67
2023/03/04 01:55:49;;;;;;;14.63;2.75;;;;;;;-146.27;81.51;48339.84;5092718;28;20027;-68
2023/03/04 01:58:14;;;;;;;14.00;1.73;;;;;;;-146.27;82.17;48369.72;5089334;28;20031;-67
2023/03/04 02:00:40;;;;;;;9.38;1.67;;;;;;;-146.27;81.58;48339.84;5100537;28;20462;-70
2023/03/04 02:03:20;;;;;;;9.63;1.42;;;;;;;-146.27;81.82;48349.78;5088753;28;20020;-69
2023/03/04 02:05:50;;;;;;;17.15;2.40;;;;;;;-146.27;81.05;48307.97;5092710;28;20407;-68
2023/03/04 02:08:19;;;;;;;16.02;1.88;;;;;;;-146.27;81.41;48375.69;5091951;28;20036;-68
2023/03/04 02:10:45;;;;;;;13.23;1.65;;;;;;;-146.27;81.46;48363.75;5090075;28;20479;-67
2023/03/04 02:13:11;;;;;;;11.00;2.03;;;;;;;-146.27;81.05;48363.75;5091135;28;20077;-68
2023/03/04 02:15:36;;;;;;;11.73;1.40;;;;;;;-146.27;81.24;48321.91;5087916;28;20035;-69
2023/03/04 02:18:13;;;;;;;13.75;1.42;;;;;;;-146.27;81.19;48351.78;5093142;28;20027;-67
2023/03/04 02:20:44;;;;;;;11.65;1.80;;;;;;;-146.27;80.70;48361.75;5093969;28;20035;-67
2023/03/04 02:23:13;;;;;;;10.88;1.15;;;;;;;-146.27;80.72;48417.50;5093198;28;20107;-67
2023/03/04 02:25:48;;;;;;;9.85;2.00;;;;;;;-146.27;80.29;48375.69;5093310;28;20016;-69
2023/03/04 02:28:13;;;;;;;6.18;1.17;;;;;;;-146.27;80.24;48333.88;5098281;28;20049;-68
2023/03/04 02:30:39;;;;;;;15.98;1.40;;;;;;;-146.27;79.95;48377.69;5083594;28;20025;-68
2023/03/04 02:33:05;;;;;;;5.10;1.00;;;;;;;-146.27;79.43;48373.69;5094123;28;20107;-68
2023/03/04 02:35:30;;;;;;;10.52;1.40;;;;;;;-146.27;79.50;48379.66;5089651;28;20054;-68
2023/03/04 02:37:56;;;;;;;15.82;1.65;;;;;;;-146.27;78.67;48373.69;5092615;28;20019;-69
2023/03/04 02:40:32;;;;;;;9.07;1.45;;;;;;;-146.27;78.24;48347.81;5077197;28;20153;-68
2023/03/04 02:42:59;;;;;;;8.90;1.38;;;;;;;-146.27;78.24;48331.88;5081517;28;20111;-70
2023/03/04 02:45:48;;;;;;;11.27;1.55;;;;;;;-146.27;78.78;48373.69;5085940;28;20047;-68
2023/03/04 02:48:19;;;;;;;14.90;1.40;;;;;;;-146.27;78.92;48351.78;5092181;28;20024;-69
2023/03/04 02:50:50;;;;;;;17.65;2.22;;;;;;;-146.27;78.91;48379.66;5075687;28;20383;-69
2023/03/04 02:53:16;;;;;;;10.73;1.33;;;;;;;-146.27;78.79;48363.75;5091672;28;20109;-68
2023/03/04 02:55:42;;;;;;;11.20;1.33;;;;;;;-146.27;79.06;48389.63;5092297;28;20020;-68
2023/03/04 02:58:08;;;;;;;18.73;2.05;;;;;;;-146.27;79.07;48369.72;5086132;28;20028;-69
2023/03/04 03:00:34;;;;;;;8.45;0.90;;;;;;;-146.27;79.52;48357.75;5093174;28;20388;-68
2023/03/04 03:02:59;;;;;;;12.85;1.63;;;;;;;-146.27;79.52;48379.66;5092355;28;20028;-68
2023/03/04 03:05:26;;;;;;;5.35;0.77;;;;;;;-146.27;79.81;48361.75;5082832;28;20055;-68
2023/03/04 03:07:52;;;;;;;11.27;1.77;;;;;;;-146.27;80.01;48355.78;5092397;28;20016;-69
2023/03/04 03:10:18;;;;;;;9.05;1.50;;;;;;;-146.27;80.61;48387.63;5091335;28;20433;-71
2023/03/04 03:12:43;;;;;;;13.07;1.40;;;;;;;-146.27;81.89;48367.72;5080156;28;20039;-68
2023/03/04 03:15:09;;;;;;;16.27;1.67;;;;;;;-146.27;81.51;48351.78;5080386;28;20024;-68
2023/03/04 03:17:34;;;;;;;6.70;1.10;;;;;;;-146.27;81.45;48375.69;5095206;28;20088;-69
2023/03/04 03:20:00;;;;;;;7.45;1.73;;;;;;;-146.27;82.92;48381.66;5092380;28;20027;-67
2023/03/04 03:22:25;;;;;;;8.30;1.52;;;;;;;-146.27;82.50;48335.84;5091518;28;20081;-68
2023/03/04 03:24:50;;;;;;;9.65;1.45;;;;;;;-146.27;81.81;48339.84;5090337;28;20027;-68
2023/03/04 03:27:16;;;;;;;13.10;1.13;;;;;;;-146.27;81.21;48347.81;5090112;28;20035;-68
2023/03/04 03:29:41;;;;;;;14.55;1.60;;;;;;;-146.27;80.27;48349.78;5091651;28;20165;-68
2023/03/04 03:32:06;;;;;;;11.07;1.25;;;;;;;-146.27;79.60;48331.88;5092287;28;20128;-68
2023/03/04 03:34:33;;;;;;;5.93;1.35;;;;;;;-146.27;80.98;48361.75;5090061;28;20020;-68
2023/03/04 03:36:58;;;;;;;10.15;1.33;;;;;;;-146.27;80.96;48337.84;5092585;28;20489;-69
2023/03/04 03:39:24;;;;;;;8.27;1.15;;;;;;;-146.27;80.43;48363.75;5091333;28;20071;-69
2023/03/04 03:41:49;;;;;;;19.50;1.65;;;;;;;-146.27;80.75;48371.69;5079812;28;20487;-68
2023/03/04 03:44:15;;;;;;;2.65;1.02;;;;;;;-146.27;80.71;48351.78;5078233;28;20040;-68
2023/03/04 03:46:40;;;;;;;8.57;1.30;;;;;;;-146.27;81.13;48367.72;5090754;28;20028;-70
2023/03/04 03:49:05;;;;;;;10.32;1.10;;;;;;;-146.27;81.32;48335.84;5089247;28;20027;-68
2023/03/04 03:51:31;;;;;;;7.78;2.00;;;;;;;-146.27;81.49;48355.78;5083908;28;20594;-68
2023/03/04 03:53:56;;;;;;;6.90;1.27;;;;;;;-146.27;81.60;48371.69;5091813;28;20035;-69
2023/03/04 03:56:21;;;;;;;10.13;1.52;;;;;;;-146.27;82.07;48327.88;5084411;28;20024;-69
2023/03/04 03:58:47;;;;;;;5.90;0.90;;;;;;;-146.27;82.44;48335.84;5082886;28;20030;-67
2023/03/04 04:01:12;;;;;;;10.07;1.65;;;;;;;-146.27;82.33;48371.69;5091921;28;20020;-69
2023/03/04 04:03:37;;;;;;;11.38;1.10;;;;;;;-146.27;80.87;48347.81;5084322;28;20077;-69
2023/03/04 04:06:03;;;;;;;4.85;1.25;;;;;;;-146.27;80.59;48387.63;5091455;28;20040;-67
2023/03/04 04:08:28;;;;;;;8.82;1.00;;;;;;;-146.27;80.62;48377.69;5084626;28;20032;-68
2023/03/04 04:10:53;;;;;;;9.80;1.30;;;;;;;-146.27;80.14;48359.75;5087346;28;20039;-68
2023/03/04 04:13:19;;;;;;;6.57;0.90;;;;;;;-146.27;80.49;48371.69;5087266;28;20418;-67
2023/03/04 04:15:44;;;;;;;3.97;1.10;;;;;;;-146.27;80.54;48383.66;5091312;28;20118;-68
2023/03/04 04:18:10;;;;;;;5.53;1.45;;;;;;;-146.27;80.80;48359.75;5089791;28;20023;-68
2023/03/04 04:20:35;;;;;;;8.00;1.00;;;;;;;-146.27;80.33;48361.75;5091778;28;20376;-68
2023/03/04 04:23:01;;;;;;;12.50;1.40;;;;;;;-146.27;80.64;48379.66;5085174;28;20031;-67
2023/03/04 04:25:27;;;;;;;13.63;1.25;;;;;;;-146.27;81.72;48347.81;5091442;28;20102;-67
2023/03/04 04:27:52;;;;;;;12.10;1.33;;;;;;;-146.27;81.63;48349.78;5088514;28;20104;-68
2023/03/04 04:30:18;;;;;;;7.32;1.35;;;;;;;-146.27;81.07;48361.75;5089230;28;20060;-67
2023/03/04 04:32:43;;;;;;;6.18;1.63;;;;;;;-146.27;80.45;48329.88;5084953;28;20383;-69
2023/03/04 04:35:09;;;;;;;9.63;1.20;;;;;;;-146.27;80.30;48353.78;5085885;28;20058;-68
2023/03/04 04:37:34;;;;;;;10.18;1.38;;;;;;;-146.27;80.23;48367.72;5088437;28;20055;-68
2023/03/04 04:39:59;;;;;;;10.00;1.10;;;;;;;-146.27;78.88;48343.81;5081593;28;20055;-68
2023/03/04 04:42:26;;;;;;;3.35;1.17;;;;;;;-146.27;78.45;48363.75;5089708;28;20521;-70
2023/03/04 04:44:51;;;;;;;3.58;1.17;;;;;;;-146.27;78.11;48365.72;5072830;28;20024;-69
2023/03/04 04:47:17;;;;;;;14.50;1.40;;;;;;;-146.27;78.94;48345.81;5086270;28;20069;-69
2023/03/04 04:49:42;;;;;;;9.20;1.00;;;;;;;-146.27;78.89;48407.56;5082906;28;20083;-67
2023/03/04 04:52:08;;;;;;;11.10;1.30;;;;;;;-146.27;78.92;48379.66;5076713;28;20472;-68
2023/03/04 04:54:33;;;;;;;6.38;1.30;;;;;;;-146.27;80.03;48371.69;5088809;28;20032;-67
2023/03/04 04:56:58;;;;;;;4.05;1.17;;;;;;;-146.27;80.02;48387.63;5087511;28;20028;-68
2023/03/04 04:59:24;;;;;;;8.35;1.35;;;;;;;-146.27;80.48;48349.78;5091962;28;20036;-69
2023/03/04 05:01:49;;;;;;;10.00;1.48;;;;;;;-146.27;81.35;48371.69;5087352;28;20027;-67
2023/03/04 05:04:14;;;;;;;8.73;2.20;;;;;;;-146.27;81.88;48379.66;5084397;28;20484;-68
2023/03/04 05:06:40;;;;;;;10.52;1.58;;;;;;;-146.27;83.67;48383.66;5090675;28;20052;-67
2023/03/04 05:09:06;;;;;;;7.60;1.58;;;;;;;-146.27;83.14;48395.59;5082446;28;20040;-69
2023/03/04 05:11:31;;;;;;;9.88;1.40;;;;;;;-146.27;83.91;48351.78;5096198;28;20032;-68
2023/03/04 05:13:56;;;;;;;8.13;1.55;;;;;;;-146.27;85.01;48359.75;5087757;28;20027;-69
2023/03/04 05:16:22;;;;;;;11.02;2.75;;;;;;;-146.27;85.42;48339.84;5093092;28;20052;-67
2023/03/04 05:18:47;;;;;;;10.40;1.90;;;;;;;-146.27;87.21;48391.63;5092313;28;20027;-68
2023/03/04 05:21:13;;;;;;;6.20;1.50;;;;;;;-146.27;87.76;48351.78;5089439;28;20324;-69
2023/03/04 05:23:40;;;;;;;7.72;1.98;;;;;;;-146.27;87.65;48339.84;5093478;28;20104;-67
2023/03/04 05:26:07;;;;;;;7.50;2.05;;;;;;;-146.27;88.19;48335.84;5092429;28;20420;-69
2023/03/04 05:28:34;;;;;;;7.68;1.52;;;;;;;-146.27;88.88;48373.69;5088671;28;20020;-69
2023/03/04 05:30:59;;;;;;;23.17;2.33;;;;;;;-146.27;89.43;48373.69;5084006;28;20028;-67
2023/03/04 05:33:25;;;;;;;12.50;1.40;;;;;;;-146.27;89.05;48359.75;5090726;28;20038;-69
2023/03/04 05:35:50;;;;;;;4.38;1.98;;;;;;;-146.27;89.99;48357.75;5100000;28;20036;-67
2023/03/04 05:38:18;;;;;;;11.73;2.25;;;;;;;-146.27;89.26;48391.63;5092530;28;20027;-67
2023/03/04 05:40:44;;;;;;;11.70;1.23;;;;;;;-146.27;89.41;48359.75;5094947;28;20450;-67
2023/03/04 05:43:10;;;;;;;8.95;1.52;;;;;;;-146.27;88.35;48351.78;5094050;28;20035;-68
2023/03/04 05:45:36;;;;;;;6.32;1.42;;;;;;;-146.27;87.94;48343.81;5096377;28;20081;-67
2023/03/04 05:48:03;;;;;;;9.80;1.30;;;;;;;-146.27;88.05;48323.91;5093268;28;20028;-68
2023/03/04 05:50:28;;;;;;;5.47;1.13;;;;;;;-146.27;87.37;48347.81;5089623;28;20032;-67
2023/03/04 05:52:54;;;;;;;2.92;0.77;;;;;;;-146.27;86.86;48361.75;5087283;28;20387;-68
2023/03/04 05:55:19;;;;;;;4.82;1.05;;;;;;;-146.27;87.54;48355.78;5086764;28;20027;-69
2023/03/04 05:57:45;;;;;;;8.02;1.60;;;;;;;-146.27;87.94;48383.66;5084463;28;20028;-68
2023/03/04 06:00:12;;;;;;;7.80;1.58;;;;;;;-146.27;87.87;48379.66;5088336;28;20036;-68
2023/03/04 06:02:38;;;;;;;2.95;1.30;;;;;;;-146.27;88.71;48393.63;5079518;28;20043;-68
2023/03/04 06:05:04;;;;;;;7.55;1.08;;;;;;;-146.27;88.85;48371.69;5085961;28;20044;-69
2023/03/04 06:07:29;;;;;;;12.10;1.40;;;;;;;-146.27;89.08;48377.69;5084067;28;20158;-69
2023/03/04 06:09:55;;;;;;;8.75;0.95;;;;;;;-146.27;89.28;48325.91;5081773;28;20115;-69
2023/03/04 06:12:20;;;;;;;10.00;1.23;;;;;;;-146.27;90.17;48387.63;5087383;28;20028;-70
2023/03/04 06:14:45;;;;;;;10.95;1.50;;;;;;;-146.27;91.37;48383.66;5087712;28;20394;-69
2023/03/04 06:17:11;;;;;;;11.80;1.45;;;;;;;-146.27;91.77;48379.66;5085806;28;20551;-68
2023/03/04 06:19:40;;;;;;;11.07;1.42;;;;;;;-146.27;92.10;48391.63;5093132;28;20027;-68
2023/03/04 06:22:06;;;;;;;13.90;1.50;;;;;;;-146.27;92.84;48331.88;5092540;28;20441;-68
2023/03/04 06:24:32;;;;;;;9.40;1.38;;;;;;;-146.27;93.78;48349.78;5093763;28;20138;-68
2023/03/04 06:26:57;;;;;;;6.97;1.35;;;;;;;-146.27;93.17;48369.72;5094248;28;20050;-68
2023/03/04 06:29:23;;;;;;;8.30;1.70;;;;;;;-146.27;92.84;48403.56;5093421;28;20023;-68
2023/03/04 06:31:48;;;;;;;5.97;1.45;;;;;;;-146.27;92.76;48369.72;5089363;28;20081;-68
2023/03/04 06:34:13;;;;;;;15.15;1.80;;;;;;;-146.27;92.81;48369.72;5086685;28;20024;-71
2023/03/04 06:36:39;;;;;;;11.15;1.67;;;;;;;-146.27;93.17;48363.75;5085419;28;20020;-68
2023/03/04 06:39:05;;;;;;;13.93;1.73;;;;;;;-146.27;93.71;48359.75;5089725;28;20016;-67
2023/03/04 06:41:31;;;;;;;9.55;1.65;;;;;;;-146.27;93.68;48389.63;5089910;28;20418;-67
2023/03/04 06:43:56;;;;;;;7.38;1.40;;;;;;;-146.27;93.36;48365.72;5092777;28;20039;-68
2023/03/04 06:46:22;;;;;;;5.30;1.33;;;;;;;-146.27;93.38;48367.72;5092482;28;20032;-69
2023/03/04 06:48:47;;;;;;;7.72;1.70;;;;;;;-146.27;92.95;48395.59;5091622;28;20028;-68
2023/03/04 06:51:13;;;;;;;7.85;1.73;;;;;;;-146.27;92.97;48375.69;5092898;28;20061;-70
2023/03/04 06:53:39;;;;;;;10.10;1.45;;;;;;;-146.27;93.09;48339.84;5093815;28;20050;-68
2023/03/04 06:56:06;;;;;;;10.27;1.48;;;;;;;-146.27;92.67;48351.78;5093899;28;20023;-69
2023/03/04 06:58:32;;;;;;;6.43;0.98;;;;;;;-146.27;91.66;48353.78;5093931;28;20036;-68
2023/03/04 07:01:07;;;;;;;9.32;1.13;;;;;;;-146.27;91.37;48395.59;5090847;28;20043;-69
2023/03/04 07:03:32;;;;;;;8.70;1.58;;;;;;;-146.27;91.74;48359.75;5092912;28;20364;-67
2023/03/04 07:05:58;;;;;;;6.70;2.50;;;;;;;-146.27;91.62;48371.69;5085752;28;20086;-68
2023/03/04 07:08:23;;;;;;;3.33;0.90;;;;;;;-146.27;91.52;48371.69;5083282;28;20467;-69
2023/03/04 07:10:48;;;;;;;2.00;0.80;;;;;;;-146.27;93.28;48371.69;5082592;28;20032;-68
2023/03/04 07:13:14;;;;;;;3.38;0.63;;;;;;;-146.27;97.18;48381.66;5084622;28;20028;-68
2023/03/04 07:15:39;;;;;;;3.58;0.57;;;;;;;-146.27;99.21;48369.72;5090417;28;20031;-67
2023/03/04 07:18:05;;;;;;;6.45;0.68;;;;;;;-146.27;100.00;48347.81;5091473;28;20032;-69
2023/03/04 07:20:30;;;;;;;3.35;0.52;;;;;;;-146.27;100.00;48353.78;5089054;28;20023;-68
2023/03/04 07:22:55;;;;;;;2.85;0.73;;;;;;;-146.27;100.00;48403.56;5082729;28;20104;-69
2023/03/04 07:25:21;;;;;;;3.47;1.45;;;;;;;-146.27;100.00;48359.75;5085436;28;20027;-70
2023/03/04 07:27:46;;;;;;;1.35;0.55;;;;;;;-146.27;100.00;48363.75;5088386;28;20044;-67
2023/03/04 07:30:12;;;;;;;5.20;0.68;;;;;;;-146.27;100.00;48359.75;5087971;28;20024;-69
2023/03/04 07:32:37;;;;;;;2.72;0.50;;;;;;;-146.27;100.00;48357.75;5087643;28;20028;-68
2023/03/04 07:35:03;;;;;;;4.57;0.90;;;;;;;-146.27;100.00;48373.69;5088476;28;20135;-69
2023/03/04 07:37:28;;;;;;;3.28;0.80;;;;;;;-146.27;100.00;48377.69;5087935;28;20035;-70
2023/03/04 07:39:53;;;;;;;5.20;0.73;;;;;;;-146.27;100.00;48379.66;5087263;28;20376;-67
2023/03/04 07:42:19;;;;;;;2.03;0.47;;;;;;;-146.27;100.00;48405.56;5088927;28;20032;-68
2023/03/04 07:44:44;;;;;;;4.95;0.80;;;;;;;-146.27;100.00;48353.78;5087226;28;20106;-67
2023/03/04 07:47:10;;;;;;;4.43;1.60;;;;;;;-146.27;100.00;48339.84;5087939;28;20735;-68
2023/03/04 07:49:35;;;;;;;4.05;1.80;;;;;;;-146.27;100.00;48393.63;5089609;28;20098;-68
2023/03/04 07:52:04;;;;;;;11.35;2.70;;;;;;;-146.27;100.00;48375.69;5092942;28;20024;-68
2023/03/04 07:54:30;;;;;;;3.22;0.98;;;;;;;-146.27;99.46;48387.63;5088987;28;20039;-69
2023/03/04 07:56:56;;;;;;;4.38;0.70;;;;;;;-146.27;99.39;48403.56;5088060;28;20020;-69
2023/03/04 07:59:21;;;;;;;3.35;0.70;;;;;;;-146.27;99.20;48361.75;5085844;28;20027;-68
2023/03/04 08:01:46;;;;;;;2.42;0.80;;;;;;;-146.27;99.03;48363.75;5084684;28;20069;-68
2023/03/04 08:04:12;;;;;;;5.97;1.27;;;;;;;-146.27;99.00;48303.97;5086215;28;20035;-69
2023/03/04 08:06:40;;;;;;;4.47;0.60;;;;;;;-146.27;98.76;48387.63;5085201;28;20403;-68
2023/03/04 08:09:07;;;;;;;4.43;0.93;;;;;;;-146.27;99.08;48345.81;5091310;28;20149;-68
2023/03/04 08:11:35;;;;;;;3.63;0.88;;;;;;;-146.27;98.95;48369.72;5080749;28;20023;-69
2023/03/04 08:14:01;;;;;;;5.22;0.93;;;;;;;-146.27;98.58;48373.69;5092176;28;20108;-67
2023/03/04 08:16:26;;;;;;;9.50;0.82;;;;;;;-146.27;98.10;48327.88;5093330;28;20069;-68
2023/03/04 08:18:58;;;;;;;2.90;0.60;;;;;;;-146.27;97.85;48401.56;5089323;28;20097;-68
2023/03/04 08:21:25;;;;;;;3.80;0.63;;;;;;;-146.27;97.40;48363.75;5079943;28;20059;-68
2023/03/04 08:23:51;;;;;;;7.53;0.90;;;;;;;-146.27;96.39;48361.75;5081993;28;20422;-68
2023/03/04 08:26:26;;;;;;;3.25;0.75;;;;;;;-146.27;96.01;48349.78;5088614;28;20016;-69
2023/03/04 08:28:54;;;;;;;4.00;0.75;;;;;;;-146.27;95.37;48343.81;5088371;28;20028;-67
2023/03/04 08:31:19;;;;;;;1.38;0.65;;;;;;;-146.27;95.27;48351.78;5084067;28;20055;-67
2023/03/04 08:33:45;;;;;;;2.63;0.55;;;;;;;-146.27;94.66;48369.72;5087773;28;20068;-67
2023/03/04 08:36:12;;;;;;;5.55;1.00;;;;;;;-146.27;93.81;48359.75;5094530;28;20024;-67
2023/03/04 08:38:37;;;;;;;1.88;0.50;;;;;;;-146.27;93.57;48357.75;5090624;28;20036;-68
2023/03/04 08:41:03;;;;;;;2.25;0.40;;;;;;;-146.27;93.06;48375.69;5085501;28;20091;-69
2023/03/04 08:43:29;;;;;;;1.35;0.40;;;;;;;-146.27;97.19;48371.69;5083974;28;20486;-69
2023/03/04 08:45:55;;;;;;;3.45;0.43;;;;;;;-146.27;100.00;48351.78;5080380;28;20013;-68
2023/03/04 08:48:21;;;;;;;1.58;0.30;;;;;;;-146.27;100.00;48329.88;5072906;28;20031;-68
2023/03/04 08:50:48;;;;;;;1.60;0.60;;;;;;;-146.27;100.00;48369.72;5081963;28;20031;-68
2023/03/04 08:53:14;;;;;;;2.67;0.30;;;;;;;-146.27;100.00;48355.78;5084327;28;20024;-68
2023/03/04 08:55:40;;;;;;;1.17;0.28;;;;;;;-146.27;100.00;48345.81;5082895;28;20027;-69
2023/03/04 08:58:06;;;;;;;3.85;0.52;;;;;;;-146.27;100.00;48379.66;5072965;28;20441;-69
2023/03/04 09:00:33;;;;;;;2.53;0.50;;;;;;;-146.27;100.00;48351.78;5076790;28;20468;-69
2023/03/04 09:02:58;;;;;;;3.70;0.63;;;;;;;-146.27;100.00;48371.69;5089526;28;20099;-70
2023/03/04 09:05:23;;;;;;;5.53;0.80;;;;;;;-146.27;100.00;48331.88;5087784;28;20442;-69
2023/03/04 09:07:49;;;;;;;4.22;0.70;;;;;;;-146.27;100.00;48339.84;5089275;28;20024;-67
2023/03/04 09:10:14;;;;;;;1.48;0.90;;;;;;;-146.27;100.00;48357.75;5073770;28;20024;-69
2023/03/04 09:12:40;;;;;;;4.00;0.68;;;;;;;-146.27;99.86;48365.72;5081989;28;20487;-69
2023/03/04 09:15:06;;;;;;;5.28;0.63;;;;;;;-146.27;99.31;48391.63;5080856;28;20384;-67
2023/03/04 09:17:32;;;;;;;3.13;1.00;;;;;;;-146.27;99.26;48319.91;5072849;28;20032;-68
2023/03/04 09:19:57;;;;;;;6.90;0.88;;;;;;;-146.27;98.46;48347.81;5081587;28;20038;-68
2023/03/04 09:22:23;;;;;;;4.03;0.85;;;;;;;-146.27;97.79;48335.84;5086010;28;20024;-68
2023/03/04 09:24:48;;;;;;;10.10;1.27;;;;;;;-146.27;97.06;48323.91;5089324;28;20031;-68
2023/03/04 09:27:14;;;;;;;3.75;0.70;;;;;;;-146.27;95.75;48333.88;5077461;28;20025;-68
2023/03/04 09:29:39;;;;;;;7.03;0.73;;;;;;;-146.27;95.04;48359.75;5083974;28;20025;-68
2023/03/04 09:32:05;;;;;;;2.08;0.45;;;;;;;-146.27;93.73;48359.75;5084499;28;20104;-68
2023/03/04 09:34:30;;;;;;;6.25;0.77;;;;;;;-146.27;92.70;48357.75;5082473;28;20036;-67
2023/03/04 09:36:56;;;;;;;5.85;0.65;;;;;;;-146.27;92.50;48327.88;5078503;28;20035;-67
2023/03/04 09:39:21;;;;;;;2.97;0.75;;;;;;;-146.27;92.65;48355.78;5074474;28;20028;-67
2023/03/04 09:41:56;;;;;;;2.20;0.50;;;;;;;-146.27;93.64;48343.81;5079557;28;20418;-67
2023/03/04 09:44:35;;;;;;;3.72;0.90;;;;;;;-146.27;91.34;48347.81;5077284;28;20043;-67
2023/03/04 09:47:13;;;;;;;2.20;0.50;;;;;;;-146.27;91.22;48327.88;5081610;28;20012;-68
2023/03/04 09:49:41;;;;;;;3.58;0.60;;;;;;;-146.27;90.83;48363.75;5078124;28;20034;-69
2023/03/04 09:52:41;;;;;;;2.70;0.60;;;;;;;-146.27;92.23;48319.91;5075744;28;20025;-68
2023/03/04 09:55:36;;;;;;;3.22;0.50;;;;;;;-146.27;93.64;48377.69;5074424;28;20037;-67
2023/03/04 09:58:20;;;;;;;;;;;;;;;-146.27;94.99;48317.94;5076696;28;20028;-68
2023/03/04 10:00:53;;;;;;;8.48;0.85;;;;;;;-146.27;95.15;48363.75;5074215;28;20482;-66
2023/03/04 10:03:26;;;;;;;5.18;1.30;;;;;;;-146.27;95.23;48333.88;5075839;28;20324;-68
2023/03/04 10:06:00;;;;;;;3.33;0.50;;;;;;;-146.27;94.74;48363.75;5075825;28;20047;-68
2023/03/04 10:08:28;;;;;;;3.13;0.40;;;;;;;-146.27;95.66;48333.88;5076742;28;20033;-68
2023/03/04 10:10:57;;;;;;;3.55;0.68;;;;;;;-146.27;96.84;48341.81;5093075;28;20416;-68
2023/03/04 10:13:55;;;;;;;2.42;0.80;;;;;;;-146.27;96.97;48363.75;5093498;28;20039;-67
2023/03/04 10:16:30;;;;;;;3.03;0.43;;;;;;;-146.27;97.08;48339.84;5069507;28;20290;-68
2023/03/04 10:19:04;;;;;;;2.63;0.60;;;;;;;-146.27;96.66;48333.88;5087745;28;20024;-69
2023/03/04 10:21:35;;;;;;;5.55;0.60;;;;;;;-146.27;96.68;48363.75;5065252;28;20044;-69
2023/03/04 10:24:09;;;;;;;1.77;0.70;;;;;;;-146.27;94.33;48343.81;5062545;28;20047;-70
2023/03/04 10:26:35;;;;;;;2.83;0.57;;;;;;;-146.27;90.15;48347.81;5066674;28;20548;-67
2023/03/04 10:29:01;;;;;;;5.05;0.55;;;;;;;-146.27;88.79;48331.88;5088620;28;20024;-67
2023/03/04 10:31:35;;;;;;;2.67;0.50;;;;;;;-146.27;86.29;48337.84;5090792;28;20400;-68
2023/03/04 10:34:03;;;;;;;7.20;0.93;;;;;;;-146.27;86.91;48335.84;5076662;28;20052;-68
2023/03/04 10:36:28;;;;;;;1.88;0.47;;;;;;;-146.27;87.29;48319.91;5088999;28;20130;-68
2023/03/04 10:39:01;;;;;;;8.35;0.80;;;;;;;-146.27;83.33;48317.94;5092183;28;20111;-67
2023/03/04 10:41:28;;;;;;;2.13;0.60;;;;;;;-146.27;79.31;48329.88;5078848;28;20039;-66
2023/03/04 10:44:20;;;;;;;7.20;1.00;;;;;;;-146.27;78.64;48331.88;5081491;28;20028;-68
2023/03/04 10:46:47;;;;;;;4.43;0.80;;;;;;;-146.27;77.09;48319.91;5074531;28;20032;-66
2023/03/04 10:49:15;;;;;;;2.60;0.52;;;;;;;-146.27;74.92;48331.88;5081722;28;20073;-67
2023/03/04 10:51:52;;;;;;;3.08;0.57;;;;;;;-146.27;73.69;48319.91;5087757;28;20031;-68
2023/03/04 10:54:36;;;;;;;6.28;0.77;;;;;;;-146.27;74.31;48333.88;5070122;28;20031;-66
2023/03/04 10:57:04;;;;;;;3.80;0.98;;;;;;;-146.27;74.62;48323.91;5085193;28;20090;-68
2023/03/04 10:59:31;;;;;;;3.30;0.90;;;;;;;-146.27;76.54;48361.75;5090614;28;20016;-67
2023/03/04 11:01:59;;;;;;;5.47;0.80;;;;;;;-146.27;81.51;48300.00;5094063;28;20363;-66
2023/03/04 11:04:26;;;;;;;4.80;0.98;;;;;;;-146.27;83.43;48303.97;5091616;28;20106;-67
2023/03/04 11:06:52;;;;;;;4.75;1.13;;;;;;;-146.27;88.94;48341.81;5080971;28;20093;-66
2023/03/04 11:09:28;;;;;;;9.05;1.50;;;;;;;-146.27;92.09;48343.81;5089358;28;20024;-68
2023/03/04 11:12:00;;;;;;;4.20;0.80;;;;;;;-146.27;92.39;48300.00;5090325;28;20039;-68
2023/03/04 11:14:33;;;;;;;1.15;0.38;;;;;;;-146.27;93.79;48319.91;5083098;28;20047;-67